createdAt,value
2019-02-23T00:03:26.113Z,103317.23
2019-02-23T00:08:37.211Z,103328.44
2019-02-23T00:13:31.514Z,103331.40
2019-02-23T00:18:27.041Z,103332.80
2019-02-23T00:23:20.400Z,103330.63
2019-02-23T00:28:15.680Z,103334.87
2019-02-23T00:33:19.746Z,103334.23
2019-02-23T00:38:13.701Z,103336.52
2019-02-23T00:43:08.634Z,103323.80
2019-02-23T00:48:03.468Z,103329.92
2019-02-23T00:53:00.186Z,103329.62
2019-02-23T00:57:53.533Z,103319.70
2019-02-23T01:02:48.198Z,103318.30
2019-02-23T01:07:44.976Z,103324.46
2019-02-23T01:12:39.755Z,103325.73
2019-02-23T01:17:36.772Z,103326.12
2019-02-23T01:22:33.105Z,103329.83
2019-02-23T01:27:29.127Z,103330.88
2019-02-23T01:32:22.483Z,103323.66
2019-02-23T01:37:27.368Z,103316.42
2019-02-23T01:42:23.601Z,103313.47
2019-02-23T01:47:18.259Z,103319.03
2019-02-23T01:52:11.719Z,103319.56
2019-02-23T01:57:04.768Z,103325.10
2019-02-23T02:01:59.941Z,103323.16
2019-02-23T02:06:53.551Z,103319.80
2019-02-23T02:11:50.611Z,103324.00
2019-02-23T02:16:45.212Z,103331.53
2019-02-23T02:21:38.712Z,103339.02
2019-02-23T02:26:35.317Z,103336.28
2019-02-23T02:32:12.256Z,103330.02
2019-02-23T02:37:09.856Z,103325.90
2019-02-23T02:42:11.493Z,103326.45
2019-02-23T02:47:05.550Z,103317.16
2019-02-23T02:52:18.753Z,103309.81
2019-02-23T02:57:13.135Z,103311.45
2019-02-23T03:02:06.085Z,103310.23
2019-02-23T03:06:58.971Z,103306.91
2019-02-23T03:11:52.921Z,103312.80
2019-02-23T03:16:45.773Z,103309.34
2019-02-23T03:21:38.630Z,103311.17
2019-02-23T03:26:31.498Z,103301.67
2019-02-23T03:31:24.416Z,103299.42
2019-02-23T03:36:17.274Z,103296.86
2019-02-23T03:41:10.162Z,103305.16
2019-02-23T03:46:03.048Z,103308.00
2019-02-23T03:50:55.902Z,103310.25
2019-02-23T03:55:48.773Z,103311.60
2019-02-23T04:00:41.654Z,103318.42
2019-02-23T04:05:34.534Z,103310.02
2019-02-23T04:10:27.372Z,103317.98
2019-02-23T04:15:21.439Z,103313.78
2019-02-23T04:20:14.287Z,103311.19
2019-02-23T04:25:07.190Z,103321.45
2019-02-23T04:30:00.318Z,103323.40
2019-02-23T04:34:53.323Z,103332.75
2019-02-23T04:39:46.188Z,103340.19
2019-02-23T04:44:39.083Z,103344.80
2019-02-23T04:49:31.921Z,103342.25
2019-02-23T04:54:24.786Z,103357.05
2019-02-23T04:59:17.650Z,103357.67
2019-02-23T05:04:10.519Z,103367.94
2019-02-23T05:09:04.053Z,103364.06
2019-02-23T05:13:56.894Z,103369.37
2019-02-23T05:18:49.784Z,103370.08
2019-02-23T05:23:42.634Z,103385.22
2019-02-23T05:28:35.533Z,103382.19
2019-02-23T05:33:28.433Z,103386.29
2019-02-23T05:38:21.291Z,103382.85
2019-02-23T05:43:14.136Z,103383.39
2019-02-23T05:48:07.025Z,103382.02
2019-02-23T05:52:59.920Z,103375.73
2019-02-23T05:57:53.923Z,103376.63
2019-02-23T06:02:46.792Z,103381.75
2019-02-23T06:07:39.649Z,103382.55
2019-02-23T06:12:32.519Z,103389.23
2019-02-23T06:17:27.174Z,103391.95
2019-02-23T06:22:20.041Z,103397.73
2019-02-23T06:27:12.893Z,103410.50
2019-02-23T06:32:05.799Z,103407.07
2019-02-23T06:36:58.719Z,103415.25
2019-02-23T06:41:51.609Z,103414.06
2019-02-23T06:46:44.450Z,103416.37
2019-02-23T06:51:37.305Z,103426.13
2019-02-23T06:56:30.163Z,103437.81
2019-02-23T07:01:23.039Z,103439.71
2019-02-23T07:06:15.895Z,103440.70
2019-02-23T07:11:08.770Z,103452.19
2019-02-23T07:16:01.596Z,103439.22
2019-02-23T07:20:54.482Z,103424.45
2019-02-23T07:25:50.348Z,103421.96
2019-02-23T07:30:43.232Z,103417.88
2019-02-23T07:35:36.154Z,103418.48
2019-02-23T07:40:29.015Z,103416.78
2019-02-23T07:45:21.911Z,103418.00
2019-02-23T07:50:14.810Z,103413.72
2019-02-23T07:55:07.793Z,103411.06
2019-02-23T08:00:00.699Z,103403.91
2019-02-23T08:04:53.599Z,103407.59
2019-02-23T08:09:46.450Z,103400.70
2019-02-23T08:14:39.350Z,103395.47
2019-02-23T08:19:32.213Z,103395.75
2019-02-23T08:24:25.206Z,103388.62
2019-02-23T08:29:18.056Z,103381.52
2019-02-23T08:34:10.964Z,103372.90
2019-02-23T08:39:05.096Z,103368.16
2019-02-23T08:43:57.967Z,103364.99
2019-02-23T08:48:50.839Z,103362.19
2019-02-23T08:53:43.716Z,103356.80
2019-02-23T08:58:36.585Z,103357.14
2019-02-23T09:03:29.439Z,103371.22
2019-02-23T09:08:22.282Z,103361.56
2019-02-23T09:13:15.160Z,103365.69
2019-02-23T09:18:08.045Z,103369.34
2019-02-23T09:23:00.925Z,103382.05
2019-02-23T09:27:53.807Z,103386.54
2019-02-23T09:32:46.715Z,103379.11
2019-02-23T09:37:39.594Z,103373.89
2019-02-23T09:42:35.505Z,103373.47
2019-02-23T09:47:28.352Z,103368.27
2019-02-23T09:52:21.207Z,103364.39
2019-02-23T09:57:14.068Z,103365.71
2019-02-23T10:02:06.938Z,103383.63
2019-02-23T10:06:59.802Z,103383.73
2019-02-23T10:11:52.696Z,103381.75
2019-02-23T10:16:45.556Z,103393.10
2019-02-23T10:21:38.417Z,103389.16
2019-02-23T10:26:31.279Z,103385.55
2019-02-23T10:31:24.139Z,103373.99
2019-02-23T10:36:18.820Z,103369.31
2019-02-23T10:41:11.677Z,103373.94
2019-02-23T10:46:04.544Z,103358.46
2019-02-23T10:50:57.400Z,103357.83
2019-02-23T10:55:51.250Z,103353.77
2019-02-23T11:00:44.157Z,103353.64
2019-02-23T11:05:37.027Z,103339.27
2019-02-23T11:10:29.920Z,103329.79
2019-02-23T11:15:23.204Z,103337.86
2019-02-23T11:20:16.697Z,103326.66
2019-02-23T11:25:09.844Z,103320.94
2019-02-23T11:30:03.790Z,103316.72
2019-02-23T11:34:56.658Z,103315.90
2019-02-23T11:39:49.518Z,103300.34
2019-02-23T11:44:42.397Z,103296.06
2019-02-23T11:49:35.250Z,103292.94
2019-02-23T11:54:28.114Z,103292.47
2019-02-23T11:59:20.990Z,103290.11
2019-02-23T12:04:13.838Z,103291.80
2019-02-23T12:09:07.721Z,103265.66
2019-02-23T12:14:00.606Z,103259.83
2019-02-23T12:18:53.469Z,103237.72
2019-02-23T12:23:46.434Z,103256.59
2019-02-23T12:28:41.146Z,103233.10
2019-02-23T12:33:33.991Z,103228.65
2019-02-23T12:38:26.863Z,103223.89
2019-02-23T12:43:19.715Z,103210.59
2019-02-23T12:48:12.602Z,103215.73
2019-02-23T12:53:05.458Z,103209.83
2019-02-23T12:57:58.920Z,103213.83
2019-02-23T13:02:51.808Z,103212.98
2019-02-23T13:07:44.717Z,103215.23
2019-02-23T13:13:27.085Z,103203.95
2019-02-23T13:19:01.944Z,103191.52
2019-02-23T13:24:42.996Z,103181.68
2019-02-23T13:30:35.404Z,103180.60
2019-02-23T13:36:33.683Z,103188.44
2019-02-23T13:42:39.084Z,103188.39
2019-02-23T13:48:09.127Z,103186.45
2019-02-23T13:54:38.970Z,103182.25
2019-02-23T14:00:32.028Z,103187.19
2019-02-23T14:06:20.106Z,103190.75
2019-02-23T14:11:50.888Z,103201.52
2019-02-23T14:17:43.624Z,103199.50
2019-02-23T14:23:34.543Z,103186.66
2019-02-23T14:29:18.124Z,103188.55
2019-02-23T14:35:08.209Z,103180.09
2019-02-23T14:41:23.258Z,103174.55
2019-02-23T14:47:03.123Z,103168.05
2019-02-23T14:53:08.578Z,103170.80
2019-02-23T14:58:43.422Z,103171.48
2019-02-23T15:04:51.227Z,103168.53
2019-02-23T15:10:56.195Z,103166.94
2019-02-23T15:17:15.334Z,103186.36
2019-02-23T15:23:03.763Z,103189.04
2019-02-23T15:29:16.294Z,103175.32
2019-02-23T15:34:41.772Z,103172.95
2019-02-23T15:40:41.236Z,103165.55
2019-02-23T15:46:28.455Z,103171.87
2019-02-23T15:51:21.447Z,103172.42
2019-02-23T15:56:14.344Z,103180.53
2019-02-23T16:01:07.219Z,103176.71
2019-02-23T16:06:00.102Z,103187.39
2019-02-23T16:10:53.047Z,103178.50
2019-02-23T16:15:45.941Z,103176.66
2019-02-23T16:20:38.774Z,103176.91
2019-02-23T16:25:39.211Z,103185.91
2019-02-23T16:30:26.379Z,103198.14
2019-02-23T16:35:22.361Z,103204.57
2019-02-23T16:40:14.053Z,103209.38
2019-02-23T16:45:07.326Z,103214.34
2019-02-23T16:50:00.339Z,103210.86
2019-02-23T16:54:53.361Z,103218.43
2019-02-23T16:59:46.247Z,103222.34
2019-02-23T17:04:39.116Z,103222.82
2019-02-23T17:09:31.975Z,103215.80
2019-02-23T17:14:26.853Z,103225.16
2019-02-23T17:19:19.749Z,103231.08
2019-02-23T17:24:12.657Z,103234.95
2019-02-23T17:29:05.509Z,103238.56
2019-02-23T17:33:58.355Z,103230.77
2019-02-23T17:38:51.213Z,103224.62
2019-02-23T17:43:44.110Z,103221.97
2019-02-23T17:48:37.022Z,103222.45
2019-02-23T17:53:29.955Z,103225.71
2019-02-23T17:58:22.808Z,103227.41
2019-02-23T18:03:15.782Z,103231.05
2019-02-23T18:08:08.669Z,103218.48
2019-02-23T18:13:01.616Z,103220.31
2019-02-23T18:17:54.521Z,103210.50
2019-02-23T18:22:47.376Z,103206.33
2019-02-23T18:27:40.261Z,103202.45
2019-02-23T18:32:33.138Z,103209.81
2019-02-23T18:37:26.012Z,103215.49
2019-02-23T18:42:18.860Z,103223.01
2019-02-23T18:47:11.730Z,103225.22
2019-02-23T18:52:04.613Z,103235.39
2019-02-23T18:56:57.525Z,103238.31
2019-02-23T19:01:50.408Z,103238.92
2019-02-23T19:06:43.267Z,103243.87
2019-02-23T19:11:38.283Z,103247.66
2019-02-23T19:16:31.206Z,103252.22
2019-02-23T19:21:24.065Z,103251.75
2019-02-23T19:26:16.917Z,103253.63
2019-02-23T19:31:09.809Z,103258.36
2019-02-23T19:36:02.673Z,103253.42
2019-02-23T19:40:55.555Z,103255.94
2019-02-23T19:45:50.205Z,103261.59
2019-02-23T19:50:51.861Z,103260.12
2019-02-23T19:55:44.714Z,103258.38
2019-02-23T20:00:37.965Z,103257.23
2019-02-23T20:05:31.437Z,103269.98
2019-02-23T20:10:25.957Z,103272.17
2019-02-23T20:15:18.960Z,103277.52
2019-02-23T20:20:11.792Z,103274.12
2019-02-23T20:25:05.509Z,103278.08
2019-02-23T20:29:58.450Z,103282.16
2019-02-23T20:34:51.547Z,103273.48
2019-02-23T20:39:44.394Z,103272.84
2019-02-23T20:44:38.716Z,103216.30
2019-02-23T20:49:31.663Z,103270.98
2019-02-23T20:54:24.538Z,103273.86
2019-02-23T20:59:17.381Z,103275.36
2019-02-23T21:04:10.254Z,103279.23
2019-02-23T21:09:04.323Z,103278.09
2019-02-23T21:13:57.317Z,103279.11
2019-02-23T21:18:50.176Z,103278.05
2019-02-23T21:23:43.039Z,103278.50
2019-02-23T21:28:35.913Z,103274.55
2019-02-23T21:33:28.885Z,103269.81
2019-02-23T21:38:21.770Z,103271.70
2019-02-23T21:43:15.709Z,103267.34
2019-02-23T21:48:08.628Z,103259.75
2019-02-23T21:53:01.512Z,103269.94
2019-02-23T21:57:54.495Z,103261.30
2019-02-23T22:02:47.346Z,103258.67
2019-02-23T22:07:40.229Z,103253.89
2019-02-23T22:12:33.136Z,103255.29
2019-02-23T22:17:29.529Z,103260.81
2019-02-23T22:22:43.125Z,103271.32
2019-02-23T22:27:36.231Z,103267.84
2019-02-23T22:32:29.094Z,103269.39
2019-02-23T22:37:25.525Z,103273.18
2019-02-23T22:42:18.518Z,103274.37
2019-02-23T22:47:28.263Z,103271.64
2019-02-23T22:53:00.673Z,103273.75
2019-02-23T22:57:54.349Z,103263.18
2019-02-23T23:02:47.174Z,103259.31
2019-02-23T23:07:40.019Z,103263.89
2019-02-23T23:12:32.854Z,103264.14
2019-02-23T23:17:25.670Z,103257.91
2019-02-23T23:22:18.512Z,103262.31
2019-02-23T23:27:11.336Z,103261.22
2019-02-23T23:32:04.171Z,103258.92
2019-02-23T23:36:56.999Z,103255.08
2019-02-23T23:41:49.838Z,103250.28
2019-02-23T23:46:42.675Z,103250.78
2019-02-23T23:51:35.499Z,103254.98
2019-02-23T23:56:28.679Z,103255.22
